| time (UTC) | temp C | wind direction | speed KPH | gust KPH | rain 1hr cm | rain 24hr cm | rain mn cm | humidity % | barometer mb |
| 20260507160905 | 12 | 67 | 1.6 | 11.3 | 0.00 | 1.65 | 1.65 | 1 | 1012.0 |
| 20260507160005 | 12 | 47 | 1.6 | 11.3 | 0.00 | 1.65 | 1.65 | 1 | 1011.8 |
| 20260507155404 | 12 | 38 | 3.2 | 11.3 | 0.00 | 1.65 | 1.65 | 1 | 1011.9 |
| 20260507154505 | 12 | 56 | 3.2 | 8.0 | 0.00 | 1.65 | 1.65 | 1 | 1011.8 |
| 20260507153604 | 12 | 71 | 3.2 | 11.3 | 0.00 | 1.65 | 1.65 | 1 | 1011.8 |
| 20260507152704 | 12 | 54 | 8.0 | 19.3 | 0.00 | 1.65 | 1.65 | 1 | 1011.4 |
| 20260507152018 | 12 | 66 | 8.0 | 20.9 | 0.00 | 1.65 | 1.65 | 1 | 1010.9 |
| 20260507151115 | 13 | 65 | 4.8 | 12.9 | 0.00 | 1.65 | 1.65 | 1 | 1012.1 |
| 20260507150006 | 13 | 40 | 3.2 | 11.3 | 0.00 | 1.65 | 1.65 | 1 | 1012.1 |
| 20260507145405 | 13 | 32 | 4.8 | 16.1 | 0.00 | 1.65 | 1.65 | 1 | 1012.2 |
| 20260507144504 | 13 | 48 | 6.4 | 16.1 | 0.00 | 1.65 | 1.65 | 1 | 1012.0 |
| 20260507143604 | 13 | 51 | 6.4 | 19.3 | 0.00 | 1.65 | 1.65 | 1 | 1011.7 |
| 20260507142704 | 13 | 60 | 3.2 | 11.3 | 0.00 | 1.65 | 1.65 | 1 | 1011.7 |
| 20260507141805 | 13 | 63 | 4.8 | 17.7 | 0.00 | 1.65 | 1.65 | 1 | 1011.5 |
| 20260507140905 | 13 | 62 | 4.8 | 19.3 | 0.00 | 1.65 | 1.65 | 1 | 1011.5 |
| 20260507140005 | 13 | 34 | 4.8 | 14.5 | 0.00 | 1.65 | 1.65 | 1 | 1011.5 |
| 20260507135614 | 13 | 48 | 3.2 | 12.9 | 0.00 | 1.65 | 1.65 | 1 | 1011.5 |
| 20260507134717 | 14 | 64 | 4.8 | 16.1 | 0.00 | 1.65 | 1.65 | 1 | 1011.3 |
| 20260507133605 | 14 | 39 | 4.8 | 17.7 | 0.00 | 1.65 | 1.65 | 1 | 1011.5 |
| 20260507132916 | 14 | 44 | 4.8 | 16.1 | 0.00 | 1.65 | 1.65 | 1 | 1011.6 |
| 20260507132014 | 15 | 61 | 4.8 | 16.1 | 0.00 | 1.65 | 1.65 | 1 | 1011.3 |
| 20260507130905 | 15 | 42 | 3.2 | 14.5 | 0.00 | 1.65 | 1.65 | 1 | 1011.5 |
| 20260507130005 | 15 | 61 | 1.6 | 14.5 | 0.00 | 1.65 | 1.65 | 1 | 1011.4 |
| 20260507125404 | 15 | 68 | 4.8 | 14.5 | 0.03 | 1.65 | 1.65 | 1 | 1011.2 |
| 20260507124504 | 15 | 58 | 3.2 | 17.7 | 0.03 | 1.65 | 1.65 | 1 | 1011.5 |
| 20260507123604 | 15 | 53 | 3.2 | 14.5 | 0.05 | 1.65 | 1.65 | 1 | 1011.6 |
| 20260507122705 | 15 | 58 | 4.8 | 12.9 | 0.05 | 1.65 | 1.65 | 1 | 1011.3 |
| 20260507121805 | 15 | 55 | 4.8 | 16.1 | 0.05 | 1.65 | 1.65 | 1 | 1011.1 |
| 20260507120904 | 15 | 63 | 6.4 | 19.3 | 0.08 | 1.65 | 1.65 | 1 | 1011.3 |
| 20260507120005 | 16 | 57 | 4.8 | 19.3 | 0.08 | 1.65 | 1.65 | 1 | 1011.3 |
| 20260507115405 | 16 | 43 | 6.4 | 19.3 | 0.05 | 1.63 | 1.63 | 1 | 1011.2 |
| 20260507114504 | 18 | 137 | 0.0 | 4.8 | 0.05 | 1.63 | 1.63 | 1 | 1011.0 |
| 20260507113816 | 18 | 271 | 0.0 | 1.6 | 0.05 | 1.60 | 1.60 | 1 | 1010.9 |
| 20260507112705 | 18 | 271 | 0.0 | 1.6 | 0.08 | 1.60 | 1.60 | 1 | 1010.6 |
| 20260507111805 | 18 | 271 | 0.0 | 1.6 | 0.10 | 1.60 | 1.60 | 1 | 1010.4 |
| 20260507110904 | 18 | 271 | 0.0 | 1.6 | 0.15 | 1.57 | 1.57 | 1 | 1010.4 |
| 20260507110005 | 18 | 0 | 0.0 | 0.0 | 0.25 | 1.57 | 1.57 | 1 | 1010.4 |
| 20260507105404 | 18 | 270 | 0.0 | 4.8 | 0.46 | 1.57 | 1.57 | 1 | 1010.2 |
| 20260507104719 | 18 | 261 | 0.0 | 4.8 | 0.79 | 1.57 | 1.57 | 1 | 1010.1 |
| 20260507103816 | 18 | 277 | 0.0 | 4.8 | 1.22 | 1.55 | 1.55 | 1 | 1010.1 |
| 20260507102704 | 18 | 274 | 1.6 | 6.4 | 1.27 | 1.52 | 1.52 | 1 | 1010.1 |
| 20260507101805 | 18 | 269 | 3.2 | 14.5 | 1.24 | 1.50 | 1.50 | 1 | 1010.2 |
| 20260507100905 | 18 | 277 | 4.8 | 11.3 | 1.17 | 1.42 | 1.42 | 1 | 1010.0 |
| 20260507100215 | 18 | 267 | 3.2 | 11.3 | 1.09 | 1.35 | 1.37 | 1 | 1010.0 |
| 20260507095617 | 18 | 261 | 4.8 | 14.5 | 0.94 | 1.19 | 1.22 | 1 | 1010.0 |
| 20260507094504 | 18 | 273 | 1.6 | 6.4 | 0.48 | 0.64 | 0.66 | 1 | 1010.3 |
| 20260507093604 | 18 | 273 | 0.0 | 3.2 | 0.13 | 0.28 | 0.28 | 1 | 1009.9 |
| 20260507092704 | 18 | 268 | 0.0 | 4.8 | 0.10 | 0.25 | 0.25 | 1 | 1009.4 |
| 20260507091805 | 18 | 268 | 0.0 | 4.8 | 0.10 | 0.25 | 0.25 | 1 | 1009.1 |
| 20260507090905 | 18 | 258 | 1.6 | 8.0 | 0.10 | 0.25 | 0.25 | 1 | 1009.2 |
| 20260507090005 | 18 | 239 | 1.6 | 6.4 | 0.10 | 0.25 | 0.25 | 1 | 1009.5 |
| 20260507085405 | 18 | 263 | 1.6 | 6.4 | 0.08 | 0.23 | 0.23 | 1 | 1009.6 |
| 20260507084715 | 18 | 273 | 1.6 | 8.0 | 0.03 | 0.18 | 0.20 | 1 | 1009.7 |
| 20260507083604 | 18 | 199 | 1.6 | 9.7 | 0.00 | 0.15 | 0.15 | 1 | 1009.5 |
| 20260507082705 | 18 | 239 | 0.0 | 4.8 | 0.00 | 0.15 | 0.15 | 1 | 1009.7 |
| 20260507081805 | 18 | 216 | 1.6 | 6.4 | 0.00 | 0.15 | 0.15 | 1 | 1009.8 |
| 20260507081114 | 18 | 251 | 1.6 | 11.3 | 0.00 | 0.15 | 0.15 | 1 | 1009.8 |
| 20260507080005 | 18 | 229 | 0.0 | 4.8 | 0.00 | 0.15 | 0.15 | 1 | 1010.0 |
| 20260507075404 | 18 | 257 | 0.0 | 3.2 | 0.00 | 0.15 | 0.15 | 1 | 1010.0 |
| 20260507074504 | 18 | 293 | 1.6 | 6.4 | 0.03 | 0.15 | 0.15 | 1 | 1010.3 |
| 20260507073604 | 18 | 198 | 0.0 | 1.6 | 0.03 | 0.15 | 0.15 | 1 | 1010.5 |
| 20260507072705 | 18 | 245 | 0.0 | 4.8 | 0.03 | 0.15 | 0.15 | 1 | 1010.1 |
| 20260507071805 | 18 | 262 | 0.0 | 3.2 | 0.03 | 0.15 | 0.15 | 1 | 1010.2 |
| 20260507070904 | 18 | 236 | 0.0 | 3.2 | 0.05 | 0.15 | 0.15 | 1 | 1010.3 |
| 20260507070009 | 18 | 253 | 0.0 | 4.8 | 0.05 | 0.15 | 0.15 | 1 | 1010.4 |
| 20260507065404 | 18 | 277 | 0.0 | 3.2 | 0.05 | 0.15 | 0.15 | 1 | 1010.3 |
| 20260507064505 | 18 | 256 | 0.0 | 3.2 | 0.03 | 0.13 | 0.13 | 1 | 1010.1 |
| 20260507063604 | 19 | 247 | 0.0 | 1.6 | 0.05 | 0.13 | 0.13 | 1 | 1010.0 |
| 20260507062705 | 19 | 273 | 0.0 | 4.8 | 0.05 | 0.13 | 0.13 | 1 | 1009.6 |
| 20260507061805 | 19 | 187 | 0.0 | 3.2 | 0.08 | 0.13 | 0.13 | 1 | 1009.7 |
| 20260507060905 | 19 | 167 | 0.0 | 1.6 | 0.08 | 0.10 | 0.10 | 1 | 1009.9 |
| 20260507060218 | 20 | 211 | 0.0 | 3.2 | 0.08 | 0.10 | 0.10 | 1 | 1010.4 |
| 20260507055405 | 20 | 265 | 0.0 | 3.2 | 0.08 | 0.10 | 0.10 | 1 | 1011.0 |
| 20260507054717 | 20 | 229 | 0.0 | 1.6 | 0.10 | 0.10 | 0.10 | 1 | 1011.0 |
| 20260507053605 | 20 | 224 | 0.0 | 3.2 | 0.08 | 0.08 | 0.08 | 1 | 1011.2 |
| 20260507052704 | 20 | 0 | 0.0 | 0.0 | 0.08 | 0.08 | 0.08 | 1 | 1011.2 |
| 20260507052014 | 20 | 0 | 0.0 | 0.0 | 0.05 | 0.05 | 0.05 | 1 | 1011.4 |
| 20260507050905 | 20 | 224 | 0.0 | 1.6 | 0.03 | 0.03 | 0.03 | 1 | 1011.4 |
| 20260507050219 | 21 | 225 | 0.0 | 3.2 | 0.03 | 0.03 | 0.03 | 1 | 1011.4 |
| 20260507045404 | 21 | 249 | 0.0 | 1.6 | 0.03 | 0.03 | 0.03 | 1 | 1011.3 |
| 20260507044505 | 21 | 251 | 0.0 | 1.6 | 0.00 | 0.00 | 0.00 | 1 | 1011.0 |
| 20260507043605 | 21 | 251 | 0.0 | 1.6 | 0.00 | 0.00 | 0.00 | 1 | 1010.9 |
| 20260507042704 | 21 | 250 | 0.0 | 1.6 | 0.00 | 0.00 | 0.00 | 1 | 1011.0 |
| 20260507042015 | 21 | 256 | 0.0 | 4.8 | 0.00 | 0.00 | 0.00 | 1 | 1011.0 |
| 20260507041117 | 21 | 265 | 1.6 | 4.8 | 0.00 | 0.00 | 0.00 | 1 | 1011.0 |
| 20260507040115 | 21 | 235 | 0.0 | 4.8 | 0.00 | 0.00 | 0.00 | 1 | 1011.0 |
| 20260507035404 | 21 | 273 | 1.6 | 4.8 | 0.00 | 0.00 | 0.00 | 1 | 1010.8 |
| 20260507034505 | 21 | 284 | 0.0 | 4.8 | 0.00 | 0.00 | 0.00 | 1 | 1010.8 |
| 20260507033816 | 21 | 273 | 0.0 | 1.6 | 0.00 | 0.00 | 0.00 | 1 | 1010.7 |
| 20260507032705 | 21 | 268 | 0.0 | 3.2 | 0.00 | 0.00 | 0.00 | 1 | 1010.6 |
| 20260507031804 | 21 | 277 | 1.6 | 8.0 | 0.00 | 0.00 | 0.00 | 1 | 1010.6 |
| 20260507031118 | 21 | 299 | 1.6 | 8.0 | 0.00 | 0.00 | 0.00 | 1 | 1010.7 |
| 20260507030005 | 20 | 270 | 0.0 | 3.2 | 0.00 | 0.00 | 0.00 | 1 | 1011.0 |
| 20260507025616 | 20 | 265 | 0.0 | 1.6 | 0.00 | 0.00 | 0.00 | 1 | 1011.0 |
| 20260507024505 | 20 | 253 | 0.0 | 4.8 | 0.00 | 0.00 | 0.00 | 1 | 1011.1 |
| 20260507023605 | 20 | 265 | 0.0 | 1.6 | 0.00 | 0.00 | 0.00 | 1 | 1011.2 |
| 20260507022705 | 20 | 256 | 0.0 | 3.2 | 0.00 | 0.00 | 0.00 | 1 | 1011.3 |
| 20260507021805 | 20 | 231 | 0.0 | 1.6 | 0.00 | 0.00 | 0.00 | 1 | 1011.3 |
| 20260507021118 | 20 | 273 | 0.0 | 3.2 | 0.00 | 0.00 | 0.00 | 1 | 1011.1 |
| 20260507020005 | 20 | 281 | 0.0 | 3.2 | 0.00 | 0.00 | 0.00 | 1 | 1011.0 |
| 20260507015405 | 20 | 221 | 0.0 | 3.2 | 0.00 | 0.00 | 0.00 | 1 | 1010.9 |
| 20260507014504 | 20 | 194 | 0.0 | 1.6 | 0.00 | 0.00 | 0.00 | 1 | 1011.1 |
| 20260507013604 | 20 | 226 | 0.0 | 3.2 | 0.00 | 0.00 | 0.00 | 1 | 1011.2 |
| 20260507012705 | 21 | 218 | 0.0 | 4.8 | 0.00 | 0.00 | 0.00 | 1 | 1011.0 |
| 20260507011804 | 21 | 264 | 0.0 | 3.2 | 0.00 | 0.00 | 0.00 | 1 | 1011.0 |
| 20260507010904 | 21 | 281 | 0.0 | 4.8 | 0.00 | 0.00 | 0.00 | 6 | 1011.0 |
| 20260507010005 | 21 | 268 | 0.0 | 1.6 | 0.00 | 0.00 | 0.00 | 14 | 1011.2 |
| 20260507005404 | 21 | 262 | 0.0 | 4.8 | 0.00 | 0.00 | 0.00 | 17 | 1011.2 |
| 20260507004504 | 21 | 219 | 0.0 | 8.0 | 0.00 | 0.00 | 0.00 | 23 | 1011.3 |
| 20260507003604 | 22 | 268 | 0.0 | 4.8 | 0.00 | 0.00 | 0.00 | 27 | 1011.2 |
| 20260507002705 | 22 | 208 | 0.0 | 3.2 | 0.00 | 0.00 | 0.00 | 31 | 1011.0 |
| 20260507001805 | 22 | 199 | 0.0 | 4.8 | 0.00 | 0.00 | 0.00 | 35 | 1010.9 |
| 20260507000904 | 22 | 241 | 0.0 | 6.4 | 0.00 | 0.00 | 0.00 | 40 | 1010.9 |
| 20260507000005 | 23 | 249 | 0.0 | 6.4 | 0.00 | 0.00 | 0.00 | 44 | 1010.7 |
| 20260506235404 | 23 | 247 | 0.0 | 6.4 | 0.00 | 0.00 | 0.00 | 46 | 1010.5 |
| 20260506234505 | 23 | 263 | 1.6 | 9.7 | 0.00 | 0.00 | 0.00 | 49 | 1010.5 |
| 20260506233604 | 23 | 269 | 1.6 | 9.7 | 0.00 | 0.00 | 0.00 | 51 | 1010.5 |
| 20260506232705 | 23 | 227 | 1.6 | 6.4 | 0.00 | 0.00 | 0.00 | 51 | 1010.4 |
| 20260506231805 | 23 | 246 | 1.6 | 9.7 | 0.00 | 0.00 | 0.00 | 53 | 1010.2 |
| 20260506230905 | 24 | 266 | 3.2 | 11.3 | 0.00 | 0.00 | 0.00 | 54 | 1010.2 |
| 20260506230005 | 24 | 268 | 3.2 | 12.9 | 0.00 | 0.00 | 0.00 | 54 | 1010.2 |
| 20260506225404 | 24 | 273 | 1.6 | 8.0 | 0.00 | 0.00 | 0.00 | 55 | 1010.2 |
| 20260506224505 | 24 | 242 | 3.2 | 14.5 | 0.00 | 0.00 | 0.00 | 55 | 1010.1 |
| 20260506223605 | 24 | 260 | 3.2 | 17.7 | 0.00 | 0.00 | 0.00 | 55 | 1010.1 |
| 20260506222704 | 25 | 239 | 1.6 | 14.5 | 0.00 | 0.00 | 0.00 | 55 | 1010.4 |
| 20260506221804 | 25 | 262 | 3.2 | 11.3 | 0.00 | 0.00 | 0.00 | 55 | 1010.3 |
| 20260506220905 | 25 | 251 | 1.6 | 12.9 | 0.00 | 0.00 | 0.00 | 56 | 1010.3 |
| 20260506220005 | 25 | 265 | 1.6 | 8.0 | 0.00 | 0.00 | 0.00 | 55 | 1010.2 |
| 20260506215404 | 25 | 260 | 3.2 | 8.0 | 0.00 | 0.00 | 0.00 | 56 | 1010.2 |
| 20260506214505 | 25 | 255 | 3.2 | 12.9 | 0.00 | 0.00 | 0.00 | 56 | 1009.9 |
| 20260506213604 | 25 | 258 | 3.2 | 14.5 | 0.00 | 0.00 | 0.00 | 56 | 1009.8 |
| 20260506212705 | 25 | 243 | 3.2 | 11.3 | 0.00 | 0.00 | 0.00 | 56 | 1009.9 |
| 20260506211804 | 24 | 239 | 4.8 | 12.9 | 0.00 | 0.00 | 0.00 | 56 | 1010.0 |
| 20260506211116 | 24 | 261 | 3.2 | 12.9 | 0.00 | 0.00 | 0.00 | 56 | 1009.8 |
| 20260506210005 | 24 | 243 | 3.2 | 19.3 | 0.00 | 0.00 | 0.00 | 56 | 1009.6 |
| 20260506205405 | 24 | 195 | 1.6 | 12.9 | 0.00 | 0.00 | 0.00 | 56 | 1009.7 |
| 20260506204504 | 24 | 258 | 1.6 | 9.7 | 0.00 | 0.00 | 0.00 | 56 | 1009.8 |
| 20260506203815 | 24 | 252 | 3.2 | 11.3 | 0.00 | 0.00 | 0.00 | 56 | 1009.8 |
| 20260506202917 | 25 | 214 | 4.8 | 17.7 | 0.00 | 0.00 | 0.00 | 56 | 1010.0 |
| 20260506201804 | 25 | 257 | 4.8 | 17.7 | 0.00 | 0.00 | 0.00 | 56 | 1010.6 |
| 20260506200905 | 25 | 247 | 4.8 | 17.7 | 0.00 | 0.00 | 0.00 | 55 | 1010.7 |
| 20260506200005 | 25 | 232 | 3.2 | 12.9 | 0.00 | 0.00 | 0.00 | 55 | 1010.8 |
| 20260506195404 | 25 | 244 | 4.8 | 14.5 | 0.00 | 0.00 | 0.00 | 55 | 1010.9 |
| 20260506194505 | 25 | 267 | 4.8 | 16.1 | 0.00 | 0.00 | 0.00 | 55 | 1011.1 |
| 20260506193604 | 24 | 244 | 3.2 | 16.1 | 0.00 | 0.00 | 0.00 | 50 | 1011.4 |
| 20260506192704 | 25 | 257 | 4.8 | 12.9 | 0.00 | 0.00 | 0.00 | 52 | 1011.7 |
| 20260506191804 | 25 | 247 | 4.8 | 14.5 | 0.00 | 0.00 | 0.00 | 53 | 1011.6 |
| 20260506190905 | 25 | 244 | 4.8 | 12.9 | 0.00 | 0.00 | 0.00 | 50 | 1011.7 |
| 20260506190006 | 25 | 223 | 6.4 | 17.7 | 0.00 | 0.00 | 0.00 | 50 | 1011.8 |
| 20260506185405 | 25 | 224 | 4.8 | 16.1 | 0.00 | 0.00 | 0.00 | 49 | 1011.9 |
| 20260506184719 | 25 | 250 | 3.2 | 12.9 | 0.00 | 0.00 | 0.00 | 47 | 1011.9 |
| 20260506183604 | 24 | 237 | 4.8 | 16.1 | 0.00 | 0.00 | 0.00 | 46 | 1012.0 |
| 20260506182704 | 24 | 261 | 3.2 | 16.1 | 0.00 | 0.00 | 0.00 | 46 | 1012.1 |
| 20260506181805 | 25 | 250 | 3.2 | 16.1 | 0.00 | 0.00 | 0.00 | 45 | 1012.1 |
| 20260506180904 | 24 | 262 | 3.2 | 16.1 | 0.00 | 0.00 | 0.00 | 43 | 1012.0 |
| 20260506180006 | 24 | 250 | 4.8 | 19.3 | 0.00 | 0.00 | 0.00 | 45 | 1012.2 |
| 20260506175404 | 23 | 224 | 4.8 | 22.5 | 0.00 | 0.00 | 0.00 | 42 | 1012.4 |
| 20260506174504 | 23 | 246 | 4.8 | 14.5 | 0.00 | 0.00 | 0.00 | 36 | 1012.7 |
| 20260506173605 | 23 | 274 | 4.8 | 16.1 | 0.00 | 0.00 | 0.00 | 39 | 1012.7 |
| 20260506172704 | 23 | 250 | 4.8 | 14.5 | 0.00 | 0.00 | 0.00 | 37 | 1012.9 |
| 20260506171804 | 22 | 221 | 3.2 | 9.7 | 0.00 | 0.00 | 0.00 | 28 | 1013.0 |
| 20260506170904 | 22 | 262 | 4.8 | 16.1 | 0.00 | 0.00 | 0.00 | 29 | 1013.3 |
| 20260506170005 | 22 | 263 | 4.8 | 22.5 | 0.00 | 0.00 | 0.00 | 27 | 1013.5 |
| 20260506165405 | 22 | 268 | 4.8 | 22.5 | 0.00 | 0.00 | 0.00 | 24 | 1013.4 |
| 20260506164505 | 22 | 266 | 3.2 | 9.7 | 0.00 | 0.00 | 0.00 | 17 | 1013.6 |
| 20260506163817 | 22 | 253 | 3.2 | 12.9 | 0.00 | 0.00 | 0.00 | 13 | 1013.4 |
| 20260506162704 | 21 | 242 | 3.2 | 16.1 | 0.00 | 0.00 | 0.00 | 3 | 1013.4 |
| 20260506161804 | 21 | 225 | 3.2 | 12.9 | 0.00 | 0.00 | 0.00 | 6 | 1013.5 |